createdAt,value
2022-12-27T00:01:45.110Z,99441.13
2022-12-27T00:04:13.908Z,99423.44
2022-12-27T00:06:42.962Z,99428.66
2022-12-27T00:09:11.506Z,99438.31
2022-12-27T00:11:41.188Z,99442.72
2022-12-27T00:14:09.715Z,99448.25
2022-12-27T00:16:40.366Z,99445.50
2022-12-27T00:19:08.900Z,99454.63
2022-12-27T00:21:37.632Z,99459.31
2022-12-27T00:24:06.762Z,99453.56
2022-12-27T00:26:36.411Z,99447.19
2022-12-27T00:29:05.567Z,99452.72
2022-12-27T00:31:34.889Z,99464.94
2022-12-27T00:34:08.235Z,99450.84
2022-12-27T00:36:37.097Z,99454.75
2022-12-27T00:39:06.283Z,99476.63
2022-12-27T00:41:34.773Z,99451.50
2022-12-27T00:44:03.400Z,99448.78
2022-12-27T00:46:32.121Z,99465.44
2022-12-27T00:49:00.581Z,99467.41
2022-12-27T00:51:30.702Z,99471.38
2022-12-27T00:53:59.131Z,99467.28
2022-12-27T00:56:30.668Z,99483.13
2022-12-27T00:59:02.361Z,99486.22
2022-12-27T01:01:34.752Z,99509.19
2022-12-27T01:04:04.450Z,99485.44
2022-12-27T01:06:36.423Z,99501.25
2022-12-27T01:09:06.291Z,99523.41
2022-12-27T01:11:35.592Z,99511.56
2022-12-27T01:14:06.170Z,99540.88
2022-12-27T01:16:35.928Z,99536.22
2022-12-27T01:19:04.611Z,99543.97
2022-12-27T01:21:34.457Z,99562.78
2022-12-27T01:24:03.077Z,99563.31
2022-12-27T01:26:31.524Z,99548.38
2022-12-27T01:28:59.973Z,99569.94
2022-12-27T01:31:29.834Z,99572.72
2022-12-27T01:34:00.690Z,99582.94
2022-12-27T01:36:31.926Z,99569.13
2022-12-27T01:39:02.313Z,99574.38
2022-12-27T01:41:50.733Z,99566.09
2022-12-27T01:44:57.664Z,99574.69
2022-12-27T01:47:43.886Z,99571.94
2022-12-27T01:50:21.368Z,99583.00
2022-12-27T01:52:57.127Z,99581.03
2022-12-27T01:55:33.695Z,99580.50
2022-12-27T01:58:07.957Z,99588.25
2022-12-27T02:00:36.879Z,99604.00
2022-12-27T02:03:07.383Z,99604.28
2022-12-27T02:05:36.142Z,99600.16
2022-12-27T02:08:38.218Z,99609.28
2022-12-27T02:11:10.279Z,99622.28
2022-12-27T02:13:43.598Z,99616.75
2022-12-27T02:16:15.276Z,99623.09
2022-12-27T02:18:44.332Z,99615.94
2022-12-27T02:21:57.416Z,99641.09
2022-12-27T02:25:02.817Z,99640.28
2022-12-27T02:27:55.107Z,99671.25
2022-12-27T02:30:25.319Z,99661.03
2022-12-27T02:33:01.982Z,99659.66
2022-12-27T02:35:38.414Z,99661.56
2022-12-27T02:38:13.605Z,99651.34
2022-12-27T02:41:02.187Z,99651.06
2022-12-27T02:43:49.107Z,99660.75
2022-12-27T02:46:40.781Z,99668.47
2022-12-27T02:49:44.474Z,99677.34
2022-12-27T02:52:58.680Z,99683.97
2022-12-27T02:56:09.590Z,99696.41
2022-12-27T02:58:53.197Z,99699.16
2022-12-27T03:01:57.387Z,99697.53
2022-12-27T03:04:47.556Z,99707.75
2022-12-27T03:07:33.955Z,99714.09
2022-12-27T03:10:39.993Z,99713.56
2022-12-27T03:13:42.696Z,99717.94
2022-12-27T03:16:25.087Z,99713.25
2022-12-27T03:19:09.597Z,99717.13
2022-12-27T03:21:59.933Z,99719.59
2022-12-27T03:24:49.351Z,99713.81
2022-12-27T03:27:28.419Z,99720.44
2022-12-27T03:30:17.787Z,99722.91
2022-12-27T03:33:11.620Z,99729.25
2022-12-27T03:36:08.684Z,99736.94
2022-12-27T03:39:00.207Z,99741.91
2022-12-27T03:41:51.528Z,99760.94
2022-12-27T03:44:26.183Z,99759.00
2022-12-27T03:46:57.688Z,99766.13
2022-12-27T03:49:35.799Z,99772.22
2022-12-27T03:52:11.168Z,99775.50
2022-12-27T03:54:42.357Z,99782.38
2022-12-27T03:57:13.574Z,99771.09
2022-12-27T03:59:42.113Z,99789.00
2022-12-27T04:02:11.823Z,99790.63
2022-12-27T04:04:41.820Z,99794.75
2022-12-27T04:07:12.024Z,99794.22
2022-12-27T04:09:57.720Z,99794.22
2022-12-27T04:12:43.568Z,99797.50
2022-12-27T04:15:29.616Z,99816.47
2022-12-27T04:18:15.631Z,99812.31
2022-12-27T04:21:02.845Z,99818.66
2022-12-27T04:23:48.930Z,99817.28
2022-12-27T04:26:34.792Z,99812.53
2022-12-27T04:29:20.411Z,99831.53
2022-12-27T04:32:06.393Z,99819.38
2022-12-27T04:34:44.186Z,99840.03
2022-12-27T04:37:17.545Z,99845.81
2022-12-27T04:40:09.879Z,99839.47
2022-12-27T04:42:55.772Z,99849.09
2022-12-27T04:45:42.082Z,99850.44
2022-12-27T04:48:31.498Z,99847.38
2022-12-27T04:51:18.290Z,99852.59
2022-12-27T04:54:05.709Z,99858.63
2022-12-27T04:56:34.156Z,99880.38
2022-12-27T04:59:21.054Z,99885.56
2022-12-27T05:02:09.593Z,99883.59
2022-12-27T05:04:40.087Z,99887.72
2022-12-27T05:07:29.402Z,99893.78
2022-12-27T05:10:18.518Z,99884.09
2022-12-27T05:13:04.227Z,99896.19
2022-12-27T05:15:32.718Z,99918.50
2022-12-27T05:18:01.114Z,99930.59
2022-12-27T05:20:29.836Z,99932.53
2022-12-27T05:23:15.716Z,99946.56
2022-12-27T05:25:47.448Z,99938.00
2022-12-27T05:28:15.904Z,99949.84
2022-12-27T05:30:45.707Z,99950.66
2022-12-27T05:33:14.238Z,99936.38
2022-12-27T05:35:43.241Z,99940.81
2022-12-27T05:38:12.134Z,99947.44
2022-12-27T05:40:40.575Z,99947.50
2022-12-27T05:43:10.368Z,99951.66
2022-12-27T05:45:38.761Z,99963.53
2022-12-27T05:48:07.636Z,99964.66
2022-12-27T05:50:36.084Z,99963.59
2022-12-27T05:53:04.494Z,99982.88
2022-12-27T05:55:32.965Z,99976.78
2022-12-27T05:58:01.422Z,99985.63
2022-12-27T06:00:31.475Z,100000.81
2022-12-27T06:03:00.015Z,100003.03
2022-12-27T06:05:28.495Z,100005.25
2022-12-27T06:07:57.033Z,100013.84
2022-12-27T06:10:25.421Z,100019.34
2022-12-27T06:12:53.882Z,100019.09
2022-12-27T06:15:22.319Z,100017.41
2022-12-27T06:17:52.147Z,100039.22
2022-12-27T06:20:21.682Z,100041.13
2022-12-27T06:22:50.192Z,100046.63
2022-12-27T06:25:18.814Z,100075.28
2022-12-27T06:27:47.267Z,100073.91
2022-12-27T06:30:15.970Z,100076.31
2022-12-27T06:32:44.384Z,100100.81
2022-12-27T06:35:14.406Z,100105.94
2022-12-27T06:37:43.063Z,100113.00
2022-12-27T06:40:12.759Z,100117.81
2022-12-27T06:42:41.184Z,100117.94
2022-12-27T06:45:11.047Z,100139.00
2022-12-27T06:47:39.508Z,100149.88
2022-12-27T06:50:09.255Z,100153.31
2022-12-27T06:52:39.114Z,100157.31
2022-12-27T06:55:08.606Z,100162.41
2022-12-27T06:57:37.091Z,100173.59
2022-12-27T07:00:07.301Z,100176.72
2022-12-27T07:02:35.841Z,100187.03
2022-12-27T07:05:04.632Z,100196.03
2022-12-27T07:07:33.216Z,100193.47
2022-12-27T07:10:03.405Z,100217.53
2022-12-27T07:12:36.654Z,100235.03
2022-12-27T07:15:07.193Z,100232.06
2022-12-27T07:17:37.064Z,100246.31
2022-12-27T07:20:06.446Z,100245.72
2022-12-27T07:22:35.023Z,100259.72
2022-12-27T07:25:05.479Z,100255.88
2022-12-27T07:27:34.960Z,100263.91
2022-12-27T07:30:03.830Z,100275.47
2022-12-27T07:32:32.274Z,100280.50
2022-12-27T07:35:00.702Z,100289.06
2022-12-27T07:37:29.204Z,100294.56
2022-12-27T07:39:57.652Z,100295.63
2022-12-27T07:42:27.556Z,100291.81
2022-12-27T07:44:56.018Z,100287.38
2022-12-27T07:47:24.487Z,100290.13
2022-12-27T07:49:52.936Z,100291.22
2022-12-27T07:52:21.446Z,100306.88
2022-12-27T07:54:49.876Z,100314.28
2022-12-27T07:57:18.346Z,100320.63
2022-12-27T07:59:48.216Z,100332.47
2022-12-27T08:02:17.344Z,100340.22
2022-12-27T08:04:45.842Z,100341.16
2022-12-27T08:07:18.284Z,100348.09
2022-12-27T08:09:49.406Z,100349.75
2022-12-27T08:12:18.282Z,100353.69
2022-12-27T08:14:48.245Z,100359.78
2022-12-27T08:17:20.890Z,100361.78
2022-12-27T08:19:51.904Z,100361.91
2022-12-27T08:22:20.630Z,100363.53
2022-12-27T08:24:49.067Z,100373.75
2022-12-27T08:27:23.215Z,100371.22
2022-12-27T08:29:54.259Z,100379.25
2022-12-27T08:32:22.943Z,100392.75
2022-12-27T08:34:51.383Z,100382.00
2022-12-27T08:37:19.837Z,100391.06
2022-12-27T08:39:48.325Z,100387.72
2022-12-27T08:42:16.758Z,100389.78
2022-12-27T08:44:45.252Z,100381.44
2022-12-27T08:47:15.200Z,100392.06
2022-12-27T08:49:43.725Z,100387.66
2022-12-27T08:52:12.293Z,100396.72
2022-12-27T08:54:40.726Z,100393.66
2022-12-27T08:57:09.138Z,100396.88
2022-12-27T08:59:37.556Z,100399.28
2022-12-27T09:02:06.090Z,100404.66
2022-12-27T09:04:35.981Z,100402.88
2022-12-27T09:07:05.131Z,100422.81
2022-12-27T09:09:33.621Z,100414.25
2022-12-27T09:12:04.262Z,100427.84
2022-12-27T09:14:36.537Z,100422.63
2022-12-27T09:17:07.204Z,100431.44
2022-12-27T09:19:37.355Z,100435.97
2022-12-27T09:22:05.830Z,100431.06
2022-12-27T09:24:34.317Z,100427.59
2022-12-27T09:27:02.797Z,100429.41
2022-12-27T09:29:31.427Z,100433.72
2022-12-27T09:31:59.868Z,100429.72
2022-12-27T09:34:28.347Z,100442.53
2022-12-27T09:36:58.187Z,100429.09
2022-12-27T09:39:26.635Z,100448.81
2022-12-27T09:44:58.233Z,100444.53
2022-12-27T09:47:33.014Z,100447.75
2022-12-27T09:50:07.052Z,100435.81
2022-12-27T09:52:42.600Z,100431.03
2022-12-27T09:55:19.175Z,100422.19
2022-12-27T09:57:48.713Z,100429.84
2022-12-27T10:00:34.545Z,100430.13
2022-12-27T10:03:06.423Z,100434.78
2022-12-27T10:05:38.215Z,100430.25
2022-12-27T10:08:28.148Z,100441.13
2022-12-27T10:11:08.536Z,100431.44
2022-12-27T10:13:50.702Z,100435.84
2022-12-27T10:16:31.008Z,100437.78
2022-12-27T10:19:22.280Z,100436.81
2022-12-27T10:22:11.482Z,100437.28
2022-12-27T10:24:46.831Z,100435.03
2022-12-27T10:27:18.863Z,100422.97
2022-12-27T10:29:47.563Z,100442.19
2022-12-27T10:32:17.719Z,100433.34
2022-12-27T10:34:46.523Z,100447.09
2022-12-27T10:37:16.857Z,100447.81
2022-12-27T10:39:46.780Z,100443.13
2022-12-27T10:42:35.580Z,100436.00
2022-12-27T10:45:29.548Z,100439.00
2022-12-27T10:48:13.011Z,100439.41
2022-12-27T10:50:46.749Z,100437.19
2022-12-27T10:53:40.076Z,100439.19
2022-12-27T10:56:26.178Z,100425.16
2022-12-27T10:58:59.059Z,100432.16
2022-12-27T11:01:30.873Z,100427.88
2022-12-27T11:04:21.014Z,100422.19
2022-12-27T11:06:52.947Z,100419.31
2022-12-27T11:09:29.743Z,100407.84
2022-12-27T11:12:20.842Z,100411.53
2022-12-27T11:14:58.587Z,100406.59
2022-12-27T11:17:31.101Z,100411.13
2022-12-27T11:20:04.247Z,100404.47
2022-12-27T11:22:33.106Z,100404.13
2022-12-27T11:25:01.951Z,100412.63
2022-12-27T11:27:32.303Z,100408.38
2022-12-27T11:30:01.852Z,100400.78
2022-12-27T11:32:30.587Z,100386.50
2022-12-27T11:34:59.451Z,100386.28
2022-12-27T11:37:29.101Z,100384.69
2022-12-27T11:40:23.138Z,100378.91
2022-12-27T11:43:01.484Z,100372.50
2022-12-27T11:45:38.619Z,100362.22
2022-12-27T11:48:19.583Z,100356.59
2022-12-27T11:51:27.665Z,100343.41
2022-12-27T11:54:43.044Z,100341.06
2022-12-27T11:57:26.296Z,100345.69
2022-12-27T12:00:07.074Z,100339.41
2022-12-27T12:03:13.488Z,100329.09
2022-12-27T12:06:01.216Z,100327.88
2022-12-27T12:09:16.316Z,100327.75
2022-12-27T12:12:07.758Z,100323.41
2022-12-27T12:15:04.031Z,100321.34
2022-12-27T12:18:09.622Z,100319.97
2022-12-27T12:21:00.964Z,100319.97
2022-12-27T12:23:51.950Z,100316.75
2022-12-27T12:26:23.066Z,100315.47
2022-12-27T12:29:33.165Z,100308.38
2022-12-27T12:32:29.000Z,100310.28
2022-12-27T12:35:26.471Z,100306.66
2022-12-27T12:38:06.723Z,100307.00
2022-12-27T12:41:12.294Z,100313.72
2022-12-27T12:44:15.044Z,100317.72
2022-12-27T12:46:48.679Z,100314.28
2022-12-27T12:49:47.253Z,100317.28
2022-12-27T12:52:39.732Z,100313.78
2022-12-27T12:55:45.467Z,100321.19
2022-12-27T12:58:44.420Z,100338.03
2022-12-27T13:01:31.488Z,100328.31
2022-12-27T13:04:27.405Z,100317.00
2022-12-27T13:07:25.726Z,100330.75
2022-12-27T13:10:19.291Z,100336.31
2022-12-27T13:12:54.922Z,100336.09
2022-12-27T13:15:38.692Z,100342.78
2022-12-27T13:18:30.111Z,100319.44
2022-12-27T13:21:17.595Z,100341.00
2022-12-27T13:24:00.852Z,100342.78
2022-12-27T13:26:42.938Z,100339.03
2022-12-27T13:30:01.691Z,100344.03
2022-12-27T13:32:49.762Z,100341.09
2022-12-27T13:35:34.128Z,100345.63
2022-12-27T13:38:21.328Z,100344.09
2022-12-27T13:41:30.770Z,100347.28
2022-12-27T13:44:36.947Z,100346.22
2022-12-27T13:47:36.693Z,100340.88
2022-12-27T13:50:48.050Z,100339.84
2022-12-27T13:53:56.579Z,100344.41
2022-12-27T13:56:54.847Z,100347.88
2022-12-27T14:00:17.317Z,100350.47
2022-12-27T14:03:39.812Z,100358.59
2022-12-27T14:06:50.299Z,100349.41
2022-12-27T14:10:12.671Z,100352.28
2022-12-27T14:13:01.591Z,100330.19
2022-12-27T14:16:15.400Z,100355.91
2022-12-27T14:19:18.835Z,100366.31
2022-12-27T14:22:53.794Z,100380.19
2022-12-27T14:26:36.948Z,100371.00
2022-12-27T14:29:43.714Z,100375.53
2022-12-27T14:33:09.937Z,100383.69
2022-12-27T14:36:14.695Z,100381.66
2022-12-27T14:39:23.635Z,100374.72
2022-12-27T14:42:55.965Z,100375.66
2022-12-27T14:46:11.471Z,100380.22
2022-12-27T14:49:32.981Z,100393.00
2022-12-27T14:52:45.066Z,100398.59
2022-12-27T14:55:37.171Z,100389.66
2022-12-27T14:58:32.928Z,100402.78
2022-12-27T15:01:15.034Z,100400.75
2022-12-27T15:04:11.742Z,100409.69
2022-12-27T15:07:20.488Z,100403.84
2022-12-27T15:09:56.728Z,100408.13
2022-12-27T15:12:35.514Z,100416.81
2022-12-27T15:15:35.699Z,100413.09
2022-12-27T15:18:28.174Z,100424.53
2022-12-27T15:21:28.521Z,100427.16
2022-12-27T15:24:05.617Z,100435.03
2022-12-27T15:26:47.794Z,100440.13
2022-12-27T15:29:32.510Z,100429.84
2022-12-27T15:32:16.488Z,100436.66
2022-12-27T15:35:17.819Z,100450.00
2022-12-27T15:37:59.208Z,100439.28
2022-12-27T15:40:50.678Z,100438.88
2022-12-27T15:43:56.351Z,100444.03
2022-12-27T15:47:09.406Z,100438.16
2022-12-27T15:50:20.734Z,100458.88
2022-12-27T15:53:30.370Z,100454.94
2022-12-27T15:56:37.847Z,100453.94
2022-12-27T15:59:45.611Z,100443.44
2022-12-27T16:02:33.130Z,100442.81
2022-12-27T16:05:34.376Z,100443.06
2022-12-27T16:08:38.926Z,100455.34
2022-12-27T16:11:13.651Z,100455.56
2022-12-27T16:13:46.806Z,100456.38
2022-12-27T16:17:06.094Z,100451.59
2022-12-27T16:20:03.064Z,100453.72
2022-12-27T16:22:37.820Z,100460.06
2022-12-27T16:25:35.053Z,100460.75
2022-12-27T16:28:08.875Z,100463.50
2022-12-27T16:30:47.720Z,100461.19
2022-12-27T16:33:37.884Z,100466.31
2022-12-27T16:36:23.462Z,100472.03
2022-12-27T16:39:39.575Z,100475.84
2022-12-27T16:42:10.363Z,100475.47
2022-12-27T16:44:57.522Z,100473.78
2022-12-27T16:48:12.042Z,100478.66
2022-12-27T16:51:12.243Z,100469.34
2022-12-27T16:54:03.511Z,100475.69
2022-12-27T16:56:33.755Z,100472.72
2022-12-27T16:59:03.779Z,100482.59
2022-12-27T17:01:59.783Z,100481.16
2022-12-27T17:04:54.753Z,100484.97
2022-12-27T17:07:50.492Z,100488.78
2022-12-27T17:10:57.467Z,100492.81
2022-12-27T17:13:43.205Z,100488.63
2022-12-27T17:16:21.994Z,100489.09
2022-12-27T17:18:56.181Z,100488.44
2022-12-27T17:21:31.774Z,100487.84
2022-12-27T17:24:06.714Z,100482.84
2022-12-27T17:27:10.713Z,100488.53
2022-12-27T17:30:04.000Z,100485.19
2022-12-27T17:33:14.545Z,100484.81
2022-12-27T17:36:21.286Z,100470.94
2022-12-27T17:39:08.994Z,100477.28
2022-12-27T17:42:21.362Z,100474.97
2022-12-27T17:45:19.064Z,100474.56
2022-12-27T17:48:15.060Z,100480.28
2022-12-27T17:50:45.537Z,100479.44
2022-12-27T17:53:39.430Z,100474.19
2022-12-27T17:56:36.114Z,100476.34
2022-12-27T17:59:24.604Z,100474.03
2022-12-27T18:01:57.905Z,100474.03
2022-12-27T18:04:32.789Z,100472.38
2022-12-27T18:07:05.155Z,100468.78
2022-12-27T18:09:42.335Z,100474.50
2022-12-27T18:12:18.900Z,100471.78
2022-12-27T18:14:53.436Z,100457.44
2022-12-27T18:17:29.444Z,100459.97
2022-12-27T18:19:59.970Z,100457.84
2022-12-27T18:22:29.797Z,100456.56
2022-12-27T18:24:59.750Z,100450.84
2022-12-27T18:27:29.141Z,100444.06
2022-12-27T18:29:58.555Z,100443.63
2022-12-27T18:32:29.710Z,100444.22
2022-12-27T18:35:02.792Z,100438.31
2022-12-27T18:37:35.508Z,100442.47
2022-12-27T18:40:07.100Z,100425.81
2022-12-27T18:42:44.762Z,100435.50
2022-12-27T18:45:26.445Z,100431.66
2022-12-27T18:47:57.965Z,100421.72
2022-12-27T18:50:31.557Z,100420.44
2022-12-27T18:53:04.277Z,100420.78
2022-12-27T18:55:33.504Z,100409.13
2022-12-27T18:58:20.168Z,100408.09
2022-12-27T19:00:52.842Z,100408.44
2022-12-27T19:03:23.025Z,100418.97
2022-12-27T19:06:10.266Z,100423.59
2022-12-27T19:08:45.195Z,100426.94
2022-12-27T19:11:22.422Z,100426.13
2022-12-27T19:13:55.613Z,100428.88
2022-12-27T19:16:28.983Z,100418.72
2022-12-27T19:19:02.550Z,100416.81
2022-12-27T19:21:37.207Z,100418.50
2022-12-27T19:24:35.826Z,100418.72
2022-12-27T19:27:24.317Z,100413.84
2022-12-27T19:29:54.256Z,100417.22
2022-12-27T19:32:28.695Z,100411.72
2022-12-27T19:35:02.287Z,100418.63
2022-12-27T19:37:35.751Z,100427.69
2022-12-27T19:40:05.057Z,100442.00
2022-12-27T19:42:36.720Z,100447.50
2022-12-27T19:45:06.524Z,100444.75
2022-12-27T19:47:39.433Z,100442.00
2022-12-27T19:50:09.326Z,100452.75
2022-12-27T19:52:41.149Z,100453.81
2022-12-27T19:55:19.220Z,100459.31
2022-12-27T19:57:48.640Z,100457.66
2022-12-27T20:00:19.361Z,100466.91
2022-12-27T20:02:48.569Z,100471.34
2022-12-27T20:05:17.827Z,100471.34
2022-12-27T20:08:24.101Z,100467.97
2022-12-27T20:10:53.570Z,100474.31
2022-12-27T20:13:22.625Z,100480.88
2022-12-27T20:15:52.712Z,100479.19
2022-12-27T20:18:22.658Z,100489.09
2022-12-27T20:20:52.066Z,100485.94
2022-12-27T20:23:22.906Z,100486.19
2022-12-27T20:25:52.038Z,100490.22
2022-12-27T20:28:20.951Z,100493.41
2022-12-27T20:30:49.766Z,100486.47
2022-12-27T20:33:19.683Z,100487.78
2022-12-27T20:35:59.045Z,100493.72
2022-12-27T20:38:29.835Z,100489.53
2022-12-27T20:40:58.396Z,100496.06
2022-12-27T20:43:27.565Z,100496.31
2022-12-27T20:45:56.773Z,100492.13
2022-12-27T20:48:25.268Z,100493.81
2022-12-27T20:50:53.933Z,100490.44
2022-12-27T20:53:28.076Z,100493.41
2022-12-27T20:56:05.144Z,100489.00
2022-12-27T20:58:34.613Z,100479.09
2022-12-27T21:01:09.431Z,100483.97
2022-12-27T21:03:39.851Z,100487.56
2022-12-27T21:06:11.589Z,100489.22
2022-12-27T21:08:46.603Z,100479.34
2022-12-27T21:11:21.652Z,100490.28
2022-12-27T21:13:51.362Z,100495.78
2022-12-27T21:16:23.271Z,100491.34
2022-12-27T21:18:52.375Z,100491.34
2022-12-27T21:21:28.036Z,100487.16
2022-12-27T21:23:58.719Z,100490.13
2022-12-27T21:26:32.192Z,100485.94
2022-12-27T21:29:03.021Z,100486.38
2022-12-27T21:31:33.190Z,100485.78
2022-12-27T21:34:02.021Z,100486.22
2022-12-27T21:36:34.117Z,100480.13
2022-12-27T21:39:04.137Z,100473.19
2022-12-27T21:41:36.689Z,100468.38
2022-12-27T21:44:05.678Z,100471.59
2022-12-27T21:46:37.423Z,100476.91
2022-12-27T21:49:08.362Z,100471.03
2022-12-27T21:51:38.611Z,100477.19
2022-12-27T21:54:07.851Z,100471.72
2022-12-27T21:56:39.211Z,100473.47
2022-12-27T21:59:12.015Z,100474.34
2022-12-27T22:01:51.964Z,100473.19
2022-12-27T22:04:22.063Z,100477.03
2022-12-27T22:06:50.728Z,100468.50
2022-12-27T22:09:20.046Z,100471.47
2022-12-27T22:11:50.215Z,100474.69
2022-12-27T22:14:24.952Z,100466.97
2022-12-27T22:16:54.034Z,100471.00
2022-12-27T22:19:22.477Z,100469.41
2022-12-27T22:21:50.973Z,100475.72
2022-12-27T22:24:20.129Z,100470.06
2022-12-27T22:26:50.620Z,100459.78
2022-12-27T22:29:19.423Z,100466.75
2022-12-27T22:31:47.933Z,100458.16
2022-12-27T22:34:16.507Z,100456.69
2022-12-27T22:36:45.054Z,100445.97
2022-12-27T22:39:13.517Z,100448.06
2022-12-27T22:41:41.998Z,100445.56
2022-12-27T22:44:15.689Z,100444.09
2022-12-27T22:47:15.771Z,100434.88
2022-12-27T22:49:33.216Z,100433.19
2022-12-27T22:52:01.663Z,100431.28
2022-12-27T22:55:05.796Z,100427.72
2022-12-27T22:57:18.586Z,100424.13
2022-12-27T22:59:48.462Z,100425.22
2022-12-27T23:02:17.247Z,100416.16
2022-12-27T23:04:45.897Z,100413.44
2022-12-27T23:07:14.363Z,100404.38
2022-12-27T23:09:43.623Z,100407.13
2022-12-27T23:12:12.739Z,100408.19
2022-12-27T23:14:41.472Z,100415.53
2022-12-27T23:17:11.598Z,100414.69
2022-12-27T23:19:40.163Z,100413.00
2022-12-27T23:22:09.030Z,100416.59
2022-12-27T23:24:37.494Z,100416.59
2022-12-27T23:27:05.921Z,100401.03
2022-12-27T23:29:34.389Z,100407.34
2022-12-27T23:32:02.888Z,100399.34
2022-12-27T23:34:32.776Z,100402.09
2022-12-27T23:37:02.205Z,100398.72
2022-12-27T23:39:30.897Z,100402.97
2022-12-27T23:41:59.380Z,100406.56
2022-12-27T23:44:33.333Z,100400.06
2022-12-27T23:47:05.361Z,100402.00
2022-12-27T23:49:35.774Z,100397.59
2022-12-27T23:52:04.327Z,100387.53
2022-12-27T23:54:32.875Z,100391.34
2022-12-27T23:57:20.745Z,100379.81
2022-12-27T23:59:50.185Z,100388.22
